SESA/SNC METAR and TAF weather

Enter ICAO airport designator
Station Type Date Time Source
SESA METAR 2021/05/17 23:00 UTC NOAA

SESA 172300Z 25010KT CAVOK 25/21 Q1011 RMK A2989


Station Type Date Time Source
SESA Decoded METAR 2021/05/17 23:00 UTC NOAA

Salinas / General Ulpiano Paez, Ecuador (SESA) 02-12S 080-59W 8M
May 17, 2021 - 07:00 PM EDT / 2021.05.17 2300 UTC
Wind: from the WSW (250 degrees) at 12 MPH (10 KT):0
Visibility: greater than 7 mile(s):0
Temperature: 77 F (25 C)
Dew Point: 69 F (21 C)
Relative Humidity: 78%
Pressure (altimeter): 29.85 in. Hg (1011 hPa)
ob: SESA 172300Z 25010KT CAVOK 25/21 Q1011 RMK A2989
cycle: 23

Station Type Date Time Source
SESA TAF UTC NOAA

Error!

Example: see airport list